Time;durP1;ratioP1;P1;durP2;ratioP2;P2;SDS_P1;SDS_P2;PMS_P1;PMS_P2;Temp;Humidity;BMP_temperature;BMP_pressure;BME280_temperature;BME280_humidity;BME280_pressure;Samples;Min_cycle;Max_cycle;Signal;HPM_P1;HPM_P2
2021/11/17 02:26:39;;;;;;;33.30;17.25;;;154.00;2252.80;;;;;;4947589;29;20039;-76
2021/11/17 02:29:28;;;;;;;26.85;15.77;;;153.90;2252.80;;;;;;4947873;29;20031;-84
2021/11/17 02:32:11;;;;;;;34.30;18.00;;;153.90;2252.80;;;;;;4945398;29;20038;-84
2021/11/17 02:35:11;;;;;;;28.15;16.83;;;153.90;2252.80;;;;;;4929205;29;20093;-77
2021/11/17 02:38:07;;;;;;;30.95;16.65;;;153.80;2252.80;;;;;;4938174;29;20023;-84
2021/11/17 02:40:54;;;;;;;31.58;17.33;;;153.90;2252.80;;;;;;4929253;28;20039;-84
2021/11/17 02:43:35;;;;;;;28.33;16.60;;;154.00;2252.80;;;;;;4944152;29;20024;-80
2021/11/17 02:46:34;;;;;;;34.70;17.75;;;153.90;2252.80;;;;;;4927672;29;20051;-80
2021/11/17 02:49:31;;;;;;;26.67;16.85;;;153.90;2252.80;;;;;;4897999;29;20031;-76
2021/11/17 02:52:03;;;;;;;26.93;12.07;;;154.00;2252.80;;;;;;4898168;29;20024;-82
2021/11/17 02:54:41;;;;;;;32.53;16.90;;;154.10;2252.80;;;;;;4882199;29;20283;-76
2021/11/17 02:57:51;;;;;;;27.30;15.93;;;154.10;2252.80;;;;;;4897891;29;20040;-78
2021/11/17 03:00:43;;;;;;;34.63;16.90;;;154.10;2252.80;;;;;;4841932;29;20091;-79
2021/11/17 03:03:36;;;;;;;33.58;17.77;;;154.10;2252.80;;;;;;4838800;29;20105;-84
2021/11/17 03:06:21;;;;;;;29.08;16.75;;;154.10;2252.80;;;;;;4827171;29;20022;-83
2021/11/17 03:08:59;;;;;;;32.47;17.13;;;154.20;2252.80;;;;;;4844686;29;20079;-84
2021/11/17 03:11:34;;;;;;;27.90;15.85;;;153.90;2252.80;;;;;;4860615;29;20026;-76
2021/11/17 03:14:20;;;;;;;38.72;18.52;;;153.80;2252.80;;;;;;4860804;29;20034;-84
2021/11/17 03:16:49;;;;;;;22.17;14.20;;;153.70;2252.80;;;;;;4856314;29;20033;-77
2021/11/17 03:19:33;;;;;;;28.00;17.67;;;153.80;2252.80;;;;;;4866265;29;20081;-76
2021/11/17 03:22:20;;;;;;;32.17;17.35;;;153.80;2252.80;;;;;;4863335;29;20129;-83
2021/11/17 03:24:58;;;;;;;25.48;13.43;;;153.70;2252.80;;;;;;4886038;29;20033;-77
2021/11/17 03:27:41;;;;;;;28.70;16.13;;;153.70;2252.80;;;;;;4886566;29;20505;-79
2021/11/17 03:30:28;;;;;;;28.13;16.60;;;153.70;2252.80;;;;;;4878600;29;20033;-84
2021/11/17 03:33:11;;;;;;;21.63;13.18;;;153.60;2252.80;;;;;;4888348;29;20029;-84
2021/11/17 03:35:47;;;;;;;37.42;16.52;;;128.90;2252.80;;;;;;4918907;28;20479;-77
2021/11/17 03:38:28;;;;;;;27.58;15.82;;;128.80;2252.80;;;;;;4923073;29;20482;-76
2021/11/17 03:41:00;;;;;;;30.67;16.88;;;128.70;2252.80;;;;;;4958760;28;20395;-83
2021/11/17 03:43:52;;;;;;;30.70;16.08;;;128.60;2252.80;;;;;;4949622;28;20027;-76
2021/11/17 03:46:30;;;;;;;27.58;16.63;;;128.50;2252.80;;;;;;4947728;28;20379;-83
2021/11/17 03:49:27;;;;;;;28.55;17.15;;;128.40;2252.80;;;;;;4934603;28;20019;-82
2021/11/17 03:51:58;;;;;;;30.75;15.95;;;128.40;2252.80;;;;;;4931177;28;20030;-76
2021/11/17 03:54:27;;;;;;;30.98;17.70;;;128.30;2252.80;;;;;;4962507;28;20479;-82
2021/11/17 03:57:20;;;;;;;32.60;16.98;;;128.20;2252.80;;;;;;4962537;28;20038;-78
2021/11/17 04:00:00;;;;;;;29.77;17.17;;;128.20;2252.80;;;;;;4944849;28;20054;-83
2021/11/17 04:02:50;;;;;;;35.97;21.17;;;128.20;2252.80;;;;;;4963190;28;20050;-84
2021/11/17 04:05:40;;;;;;;41.33;21.35;;;128.30;2252.80;;;;;;4948325;28;20158;-80
2021/11/17 04:08:30;;;;;;;39.75;18.75;;;128.30;2252.80;;;;;;4957325;28;20502;-81
2021/11/17 04:11:14;;;;;;;32.50;18.23;;;128.20;2252.80;;;;;;4944323;28;20142;-79
2021/11/17 04:13:46;;;;;;;37.42;18.23;;;128.30;2252.80;;;;;;4963113;28;20070;-84
2021/11/17 04:17:02;;;;;;;41.53;20.58;;;128.40;2252.80;;;;;;4949214;28;20023;-76
2021/11/17 04:19:41;;;;;;;33.22;17.70;;;128.40;2252.80;;;;;;4906972;29;20337;-79
2021/11/17 04:22:24;;;;;;;34.30;18.33;;;128.40;2252.80;;;;;;4888906;29;20093;-76
2021/11/17 04:25:18;;;;;;;28.95;17.13;;;128.40;2252.80;;;;;;4895659;29;20032;-76
2021/11/17 04:27:44;;;;;;;36.88;19.02;;;128.30;2252.80;;;;;;4890930;29;20036;-84
2021/11/17 04:30:10;;;;;;;;;;;128.20;2252.80;;;;;;4905237;29;20402;-80
2021/11/17 04:32:57;;;;;;;27.65;16.52;;;128.20;2252.80;;;;;;4904334;29;19907;-83
2021/11/17 04:35:41;;;;;;;;;;;128.20;2252.80;;;;;;4900735;29;20041;-83
2021/11/17 04:38:24;;;;;;;34.15;18.17;;;128.10;2252.80;;;;;;4905100;29;19951;-79
2021/11/17 04:41:40;;;;;;;37.42;18.63;;;103.30;2227.20;;;;;;4906811;29;20032;-79
2021/11/17 04:44:43;;;;;;;35.90;17.75;;;103.30;2227.20;;;;;;4855530;29;20041;-83
2021/11/17 04:47:18;;;;;;;33.10;17.95;;;103.30;2227.20;;;;;;4873548;29;20037;-81
2021/11/17 04:49:47;;;;;;;34.30;18.45;;;128.10;2252.80;;;;;;4851706;29;20033;-83
2021/11/17 04:52:22;;;;;;;39.80;18.50;;;128.10;2252.80;;;;;;4863611;29;20032;-84
2021/11/17 04:55:17;;;;;;;36.63;18.83;;;128.20;2252.80;;;;;;4884037;29;20037;-76
2021/11/17 04:57:59;;;;;;;31.85;17.58;;;128.10;2252.80;;;;;;4895481;29;20047;-84
2021/11/17 05:01:01;;;;;;;34.97;19.60;;;128.20;2252.80;;;;;;4883980;29;20043;-80
2021/11/17 05:03:46;;;;;;;35.55;16.95;;;128.20;2252.80;;;;;;4897318;29;20028;-80
2021/11/17 05:06:36;;;;;;;36.55;18.80;;;128.30;2252.80;;;;;;4888678;29;20039;-84
2021/11/17 05:09:35;;;;;;;37.83;18.65;;;128.40;2252.80;;;;;;4902639;29;20036;-76
2021/11/17 05:12:06;;;;;;;39.30;18.70;;;128.40;2252.80;;;;;;4903185;29;20035;-80
2021/11/17 05:15:13;;;;;;;34.13;17.73;;;128.30;2252.80;;;;;;4903056;29;20644;-77
2021/11/17 05:17:41;;;;;;;86.88;59.95;;;128.20;2252.80;;;;;;4901727;29;20080;-84
2021/11/17 05:20:23;;;;;;;80.82;50.33;;;128.20;2252.80;;;;;;4950877;28;20045;-78
2021/11/17 05:23:13;;;;;;;53.72;22.17;;;128.20;2252.80;;;;;;4953484;28;20027;-80
2021/11/17 05:25:57;;;;;;;42.63;18.92;;;128.20;2252.80;;;;;;4946913;29;20031;-84
2021/11/17 05:28:28;;;;;;;34.80;20.50;;;128.20;2252.80;;;;;;4941990;29;20039;-76
2021/11/17 05:30:57;;;;;;;37.20;18.02;;;128.20;2252.80;;;;;;4949116;28;20066;-76
2021/11/17 05:33:38;;;;;;;38.72;19.88;;;128.20;2252.80;;;;;;4968966;28;20050;-84
2021/11/17 05:36:07;;;;;;;36.13;19.38;;;128.20;2252.80;;;;;;4942078;29;20376;-79
2021/11/17 05:38:48;;;;;;;32.22;17.98;;;128.30;2252.80;;;;;;4940902;29;20738;-81
2021/11/17 05:41:35;;;;;;;49.60;19.27;;;128.30;2252.80;;;;;;4925180;29;20070;-83
2021/11/17 05:44:01;;;;;;;34.22;18.13;;;128.10;2252.80;;;;;;4966901;28;20026;-83
2021/11/17 05:46:32;;;;;;;;;;;103.30;2227.20;;;;;;4966655;28;20502;-84
2021/11/17 05:49:19;;;;;;;37.40;19.63;;;103.20;2227.20;;;;;;4963688;28;19970;-82
2021/11/17 05:51:54;;;;;;;27.70;14.40;;;103.20;2227.20;;;;;;4963139;28;20024;-77
2021/11/17 05:54:33;;;;;;;35.67;18.80;;;103.10;2227.20;;;;;;4946494;28;20073;-83
2021/11/17 05:57:20;;;;;;;37.78;20.65;;;103.10;2227.20;;;;;;4958124;29;20045;-76
2021/11/17 06:00:07;;;;;;;39.80;20.52;;;128.00;2252.80;;;;;;4966906;28;20073;-83
2021/11/17 06:03:06;;;;;;;25.70;14.45;;;128.10;2252.80;;;;;;4951347;28;20113;-76
2021/11/17 06:05:32;;;;;;;38.38;19.77;;;128.10;2252.80;;;;;;4955481;28;20034;-84
2021/11/17 06:07:57;;;;;;;;;;;128.10;2252.80;;;;;;4967000;28;20023;-81
2021/11/17 06:10:33;;;;;;;35.80;19.92;;;103.30;2227.20;;;;;;4968064;28;20005;-77
2021/11/17 06:13:00;;;;;;;36.92;20.42;;;103.20;2227.20;;;;;;4940565;29;20102;-83
2021/11/17 06:15:26;;;;;;;31.83;18.17;;;103.20;2227.20;;;;;;4957705;28;20032;-84
2021/11/17 06:17:54;;;;;;;;;;;103.30;2227.20;;;;;;4950575;28;20036;-77
2021/11/17 06:20:21;;;;;;;42.83;20.80;;;128.20;2252.80;;;;;;4948471;29;19911;-76
2021/11/17 06:22:54;;;;;;;38.97;19.25;;;103.30;2227.20;;;;;;4940372;29;20023;-75
2021/11/17 06:25:21;;;;;;;34.75;18.20;;;128.10;2252.80;;;;;;4957389;29;20110;-82
2021/11/17 06:27:54;;;;;;;35.22;19.55;;;128.40;2252.80;;;;;;4942946;28;20035;-83
2021/11/17 06:30:24;;;;;;;31.23;18.00;;;128.40;2252.80;;;;;;4969933;28;20121;-82
2021/11/17 06:32:52;;;;;;;35.03;19.13;;;128.40;2252.80;;;;;;4963210;28;20020;-83
2021/11/17 06:35:18;;;;;;;46.05;20.17;;;128.40;2252.80;;;;;;4974121;28;20035;-82
2021/11/17 06:37:44;;;;;;;;;;;128.40;2252.80;;;;;;4974599;28;20034;-81
2021/11/17 06:40:15;;;;;;;37.97;18.88;;;128.80;2252.80;;;;;;4951347;28;19911;-83
2021/11/17 06:42:50;;;;;;;38.70;18.63;;;128.70;2252.80;;;;;;4963892;28;20118;-82
2021/11/17 06:45:42;;;;;;;35.65;19.13;;;128.80;2252.80;;;;;;4945301;28;20055;-79
2021/11/17 06:48:09;;;;;;;35.05;18.95;;;128.90;2252.80;;;;;;4945730;28;20023;-77
2021/11/17 06:50:37;;;;;;;35.30;18.98;;;153.70;2252.80;;;;;;4950335;28;20023;-76
2021/11/17 06:53:05;;;;;;;32.25;18.33;;;153.80;2252.80;;;;;;4949224;28;20069;-76
2021/11/17 06:55:31;;;;;;;36.25;20.35;;;153.80;2252.80;;;;;;4963781;28;20045;-80
2021/11/17 06:57:57;;;;;;;;;;;154.10;2252.80;;;;;;4964026;28;20038;-82
2021/11/17 07:00:26;;;;;;;35.50;19.63;;;154.20;2252.80;;;;;;4958682;28;20005;-75
2021/11/17 07:02:53;;;;;;;35.88;19.00;;;154.10;2252.80;;;;;;4944219;29;20539;-76
2021/11/17 07:05:19;;;;;;;38.70;21.27;;;154.20;2252.80;;;;;;4939986;29;20468;-84
2021/11/17 07:07:46;;;;;;;39.45;20.33;;;154.20;2252.80;;;;;;4940233;29;20062;-83
2021/11/17 07:10:14;;;;;;;36.63;20.10;;;179.40;2252.80;;;;;;4940066;29;20058;-82
2021/11/17 07:12:40;;;;;;;41.83;21.98;;;154.40;2252.80;;;;;;4957180;29;20082;-76
2021/11/17 07:15:08;;;;;;;42.70;20.20;;;154.50;2252.80;;;;;;4939803;29;20554;-82
2021/11/17 07:17:34;;;;;;;39.00;20.73;;;154.50;2252.80;;;;;;4957086;29;20027;-83
2021/11/17 07:19:59;;;;;;;;;;;154.50;2252.80;;;;;;4940291;29;20185;-78
2021/11/17 07:22:25;;;;;;;36.70;20.58;;;179.20;2252.80;;;;;;4956692;29;20323;-81
2021/11/17 07:24:51;;;;;;;;;;;179.30;2252.80;;;;;;4940160;29;20121;-79
2021/11/17 07:27:23;;;;;;;36.28;19.17;;;179.50;2252.80;;;;;;4956040;28;19910;-79
2021/11/17 07:29:52;;;;;;;36.45;20.95;;;179.30;2252.80;;;;;;4956438;29;20023;-78
2021/11/17 07:32:19;;;;;;;38.95;21.90;;;179.50;2252.80;;;;;;4939404;29;20042;-79
2021/11/17 07:34:46;;;;;;;46.10;22.17;;;179.50;2252.80;;;;;;4956185;29;20027;-81
2021/11/17 07:37:12;;;;;;;46.28;21.88;;;179.40;2252.80;;;;;;4958939;28;20443;-76
2021/11/17 07:39:38;;;;;;;40.03;21.27;;;179.50;2252.80;;;;;;4958624;28;20050;-79
2021/11/17 07:42:03;;;;;;;;;;;179.50;2252.80;;;;;;4959343;28;20031;-83
2021/11/17 07:44:29;;;;;;;45.67;22.50;;;179.70;2252.80;;;;;;4956318;29;19910;-82
2021/11/17 07:46:57;;;;;;;;;;;179.80;2252.80;;;;;;4956704;29;20027;-82
2021/11/17 07:49:24;;;;;;;42.78;20.98;;;179.90;2252.80;;;;;;4938932;29;19906;-76
2021/11/17 07:51:51;;;;;;;40.85;23.10;;;179.80;2252.80;;;;;;4938744;29;20484;-80
2021/11/17 07:54:19;;;;;;;48.70;24.75;;;179.70;2252.80;;;;;;4956089;29;20031;-80
2021/11/17 07:56:47;;;;;;;43.25;22.73;;;179.70;2252.80;;;;;;4956113;29;20031;-76
2021/11/17 07:59:17;;;;;;;45.10;23.83;;;179.70;2252.80;;;;;;4938428;29;20396;-77
2021/11/17 08:01:45;;;;;;;50.78;23.80;;;179.90;2252.80;;;;;;4938507;29;20476;-80
2021/11/17 08:04:14;;;;;;;45.03;24.98;;;179.90;2252.80;;;;;;4955479;29;20064;-77
2021/11/17 08:06:41;;;;;;;47.63;23.77;;;179.90;2252.80;;;;;;4938735;29;20046;-77
2021/11/17 08:09:07;;;;;;;42.72;23.27;;;180.00;2252.80;;;;;;4938898;29;20404;-82
2021/11/17 08:11:33;;;;;;;42.95;24.10;;;204.80;2252.80;;;;;;4956067;29;20065;-79
2021/11/17 08:13:59;;;;;;;;;;;204.90;2252.80;;;;;;4939093;29;20182;-80
2021/11/17 08:16:25;;;;;;;44.42;22.08;;;205.00;2252.80;;;;;;4938706;29;19906;-78
2021/11/17 08:18:50;;;;;;;;;;;205.00;2252.80;;;;;;4955915;29;20110;-78
2021/11/17 08:21:17;;;;;;;45.88;21.98;;;205.00;2252.80;;;;;;4938772;29;19961;-81
2021/11/17 08:23:44;;;;;;;46.90;23.35;;;205.00;2252.80;;;;;;4956008;29;20534;-76
2021/11/17 08:26:10;;;;;;;55.53;25.75;;;205.00;2252.80;;;;;;4938301;29;20034;-79
2021/11/17 08:28:39;;;;;;;45.95;23.52;;;205.00;2252.80;;;;;;4938693;29;20095;-77
2021/11/17 08:31:05;;;;;;;50.42;24.35;;;205.20;2252.80;;;;;;4938469;29;20373;-76
2021/11/17 08:33:30;;;;;;;;;;;205.30;2252.80;;;;;;4938860;29;20043;-76
2021/11/17 08:35:57;;;;;;;62.85;25.02;;;205.20;2252.80;;;;;;4955381;29;19910;-79
2021/11/17 08:38:24;;;;;;;41.38;22.55;;;205.50;2252.80;;;;;;4955294;28;20023;-79
2021/11/17 08:40:55;;;;;;;35.53;19.92;;;205.40;2252.80;;;;;;4941028;29;20381;-78
2021/11/17 08:43:21;;;;;;;36.47;20.08;;;205.70;2252.80;;;;;;4942419;29;20547;-78
2021/11/17 08:45:48;;;;;;;36.17;21.27;;;230.70;2252.80;;;;;;4959584;29;20023;-78
2021/11/17 08:48:15;;;;;;;36.00;20.02;;;230.50;2252.80;;;;;;4959537;29;20034;-76
2021/11/17 08:50:41;;;;;;;35.58;20.20;;;230.60;2252.80;;;;;;4959507;29;20098;-82
2021/11/17 08:53:08;;;;;;;;;;;230.70;2252.80;;;;;;4942767;29;20062;-78
2021/11/17 08:55:34;;;;;;;27.40;16.40;;;230.80;2252.80;;;;;;4942025;29;19910;-81
2021/11/17 08:58:00;;;;;;;;;;;230.80;2252.80;;;;;;4959835;29;20130;-81
2021/11/17 09:00:27;;;;;;;32.17;18.25;;;230.90;2252.80;;;;;;4959169;29;19906;-77
2021/11/17 09:02:55;;;;;;;33.55;18.00;;;230.90;2252.80;;;;;;4941650;29;20023;-78
2021/11/17 09:05:23;;;;;;;28.80;18.83;;;230.90;2252.80;;;;;;4959144;29;20086;-83
2021/11/17 09:07:49;;;;;;;33.75;18.55;;;231.10;2252.80;;;;;;4966196;28;20054;-87
2021/11/17 09:10:17;;;;;;;;;;;231.10;2252.80;;;;;;4950872;28;20047;-83
2021/11/17 09:12:43;;;;;;;28.38;16.65;;;231.20;2252.80;;;;;;4964210;28;19906;-77
2021/11/17 09:15:11;;;;;;;28.35;17.10;;;231.30;2252.80;;;;;;4942170;29;20024;-82
2021/11/17 09:17:39;;;;;;;28.65;17.60;;;231.20;2252.80;;;;;;4959143;29;20027;-77
2021/11/17 09:20:07;;;;;;;28.08;16.80;;;231.30;2252.80;;;;;;4942188;29;20472;-80
2021/11/17 09:22:32;;;;;;;27.15;16.98;;;256.00;2252.80;;;;;;4942185;29;20050;-81
2021/11/17 09:25:00;;;;;;;32.65;18.23;;;256.00;2252.80;;;;;;4958797;29;20492;-83
2021/11/17 09:27:25;;;;;;;31.33;17.30;;;256.20;2252.80;;;;;;4942034;29;20024;-86
2021/11/17 09:29:51;;;;;;;;;;;256.30;2252.80;;;;;;4942371;29;20023;-81
2021/11/17 09:32:17;;;;;;;30.27;15.65;;;256.40;2252.80;;;;;;4942208;29;20355;-81
2021/11/17 09:34:42;;;;;;;;;;;256.50;2252.80;;;;;;4942130;29;20113;-79
2021/11/17 09:37:09;;;;;;;23.05;13.90;;;256.90;2252.80;;;;;;4941947;29;19907;-86
2021/11/17 09:39:40;;;;;;;23.92;13.52;;;256.90;2252.80;;;;;;4941594;29;20037;-78
2021/11/17 09:42:08;;;;;;;26.02;13.85;;;256.90;2252.80;;;;;;4941567;29;20111;-77
2021/11/17 09:44:41;;;;;;;28.17;15.95;;;281.70;2278.40;;;;;;4941706;29;20476;-81
2021/11/17 09:47:12;;;;;;;19.20;12.65;;;281.60;2278.40;;;;;;4941301;29;20034;-83
2021/11/17 09:49:45;;;;;;;22.58;13.18;;;281.70;2278.40;;;;;;4941409;29;20431;-78
2021/11/17 09:52:21;;;;;;;18.95;11.23;;;282.00;2278.40;;;;;;4940957;29;20031;-80
2021/11/17 09:55:21;;;;;;;18.85;10.90;;;282.00;2278.40;;;;;;4958308;29;20027;-81
2021/11/17 09:57:57;;;;;;;18.75;12.02;;;281.90;2278.40;;;;;;4899245;29;20052;-76
2021/11/17 10:00:28;;;;;;;23.17;12.30;;;281.90;2278.40;;;;;;4883369;29;20041;-81
2021/11/17 10:03:06;;;;;;;21.38;11.25;;;282.00;2278.40;;;;;;4883868;29;20119;-76
2021/11/17 10:12:02;;;;;;;26.92;13.68;;;281.70;2278.40;;;;;;4861954;29;20045;-82
2021/11/17 10:14:38;;;;;;;27.48;13.75;;;282.00;2278.40;;;;;;4846379;29;20029;-83
2021/11/17 10:17:36;;;;;;;19.90;12.90;;;282.10;2278.40;;;;;;4846520;29;20037;-84
2021/11/17 10:20:17;;;;;;;22.38;11.73;;;282.10;2278.40;;;;;;4861999;29;20110;-81
2021/11/17 10:22:51;;;;;;;18.63;10.23;;;282.10;2278.40;;;;;;4851451;29;20047;-84
2021/11/17 10:25:22;;;;;;;21.85;11.63;;;282.00;2278.40;;;;;;4854137;29;20057;-84
2021/11/17 10:28:01;;;;;;;21.50;11.27;;;282.10;2278.40;;;;;;4841183;29;20117;-84
2021/11/17 10:30:34;;;;;;;19.98;12.65;;;282.20;2278.40;;;;;;4850348;29;20025;-86
2021/11/17 10:33:13;;;;;;;19.38;11.40;;;282.40;2278.40;;;;;;4863839;29;20072;-78
2021/11/17 10:35:55;;;;;;;18.27;12.35;;;307.20;2304.00;;;;;;4880649;29;20124;-81
2021/11/17 10:38:28;;;;;;;20.70;12.13;;;307.20;2304.00;;;;;;4880312;29;20039;-80
2021/11/17 10:41:01;;;;;;;22.95;12.27;;;307.40;2304.00;;;;;;4864449;29;20064;-85
2021/11/17 10:43:49;;;;;;;23.42;12.23;;;307.40;2304.00;;;;;;4880670;29;20032;-82
2021/11/17 10:46:20;;;;;;;20.67;11.43;;;307.40;2304.00;;;;;;4880093;29;20057;-78
2021/11/17 10:48:57;;;;;;;17.00;10.65;;;307.20;2304.00;;;;;;4934909;28;20035;-79
2021/11/17 10:51:34;;;;;;;18.45;11.05;;;282.50;2278.40;;;;;;4940201;29;20491;-79
2021/11/17 10:54:06;;;;;;;21.50;13.20;;;307.20;2304.00;;;;;;4940084;29;20110;-82
2021/11/17 10:56:32;;;;;;;19.40;11.93;;;307.30;2304.00;;;;;;4940344;29;20038;-82
2021/11/17 10:59:00;;;;;;;18.90;11.30;;;307.20;2304.00;;;;;;4940246;29;20043;-82
2021/11/17 11:01:27;;;;;;;17.80;11.82;;;307.20;2304.00;;;;;;4943301;28;20024;-81
2021/11/17 11:04:22;;;;;;;20.98;11.30;;;307.20;2304.00;;;;;;4945776;28;20231;-82
2021/11/17 11:07:24;;;;;;;20.02;13.05;;;282.50;2278.40;;;;;;4948749;28;20551;-77
2021/11/17 11:10:06;;;;;;;23.23;12.50;;;282.40;2278.40;;;;;;4946238;28;20039;-82
2021/11/17 11:12:34;;;;;;;23.50;12.68;;;307.20;2304.00;;;;;;4947559;28;20035;-78
2021/11/17 11:15:07;;;;;;;34.80;15.15;;;307.20;2304.00;;;;;;4967294;28;20023;-78
2021/11/17 11:17:32;;;;;;;19.40;11.15;;;307.50;2304.00;;;;;;4939086;29;20103;-77
2021/11/17 11:20:16;;;;;;;20.33;12.57;;;307.40;2304.00;;;;;;4939230;29;20118;-76
2021/11/17 11:23:04;;;;;;;15.25;10.00;;;307.60;2304.00;;;;;;4939164;29;20440;-77
2021/11/17 11:25:38;;;;;;;19.00;12.18;;;307.80;2304.00;;;;;;4939372;29;20023;-81
2021/11/17 11:28:24;;;;;;;25.27;14.70;;;308.00;2304.00;;;;;;4939663;29;20078;-76
2021/11/17 11:31:03;;;;;;;19.67;11.77;;;307.90;2304.00;;;;;;4939183;29;20420;-75
2021/11/17 11:33:49;;;;;;;25.75;14.77;;;307.70;2304.00;;;;;;4939211;29;20039;-80
2021/11/17 11:36:15;;;;;;;22.38;13.98;;;307.60;2304.00;;;;;;4956576;29;20074;-83
2021/11/17 11:38:49;;;;;;;29.85;20.05;;;307.60;2304.00;;;;;;4939671;29;20118;-81
2021/11/17 11:41:38;;;;;;;32.58;20.35;;;307.80;2304.00;;;;;;4939548;29;20030;-76
2021/11/17 11:44:24;;;;;;;25.63;16.00;;;308.00;2304.00;;;;;;4956818;29;20060;-85
2021/11/17 11:46:56;;;;;;;33.15;18.80;;;308.00;2304.00;;;;;;4956626;29;20034;-84
2021/11/17 11:49:34;;;;;;;24.80;13.82;;;307.80;2304.00;;;;;;4938725;29;20035;-77
2021/11/17 11:52:34;;;;;;;31.50;15.30;;;307.70;2304.00;;;;;;4939139;29;20387;-80
2021/11/17 11:55:00;;;;;;;29.40;15.95;;;307.50;2304.00;;;;;;4881915;29;20085;-76
2021/11/17 11:57:40;;;;;;;31.48;16.08;;;307.70;2304.00;;;;;;4897203;29;20461;-81
2021/11/17 12:00:18;;;;;;;28.60;16.80;;;307.90;2304.00;;;;;;4881870;29;20140;-81
2021/11/17 12:02:54;;;;;;;32.80;17.05;;;307.70;2304.00;;;;;;4897293;29;20028;-81
2021/11/17 12:05:36;;;;;;;18.73;11.18;;;307.80;2304.00;;;;;;4897411;29;20036;-87
2021/11/17 12:08:26;;;;;;;18.52;9.70;;;307.80;2304.00;;;;;;4896796;29;20094;-75
2021/11/17 12:11:01;;;;;;;17.33;10.63;;;307.70;2304.00;;;;;;4897247;29;20119;-85
2021/11/17 12:13:37;;;;;;;20.08;11.82;;;307.80;2304.00;;;;;;4897414;29;20062;-85
2021/11/17 12:16:05;;;;;;;17.50;8.35;;;307.70;2304.00;;;;;;4897328;29;20038;-84
2021/11/17 12:18:48;;;;;;;15.98;10.38;;;307.70;2304.00;;;;;;4897317;29;20048;-86
2021/11/17 12:21:26;;;;;;;15.48;10.13;;;307.60;2304.00;;;;;;4897339;29;20519;-85
2021/11/17 12:24:12;;;;;;;18.88;11.43;;;307.60;2304.00;;;;;;4896946;29;20037;-80
2021/11/17 12:26:41;;;;;;;17.70;10.75;;;307.70;2304.00;;;;;;4897033;29;20526;-85
2021/11/17 12:29:22;;;;;;;18.42;10.80;;;307.70;2304.00;;;;;;4897273;29;20064;-86
2021/11/17 12:32:09;;;;;;;19.48;12.85;;;307.70;2304.00;;;;;;4921856;29;20075;-79
2021/11/17 12:34:44;;;;;;;20.95;12.27;;;307.70;2304.00;;;;;;4956174;29;20024;-86
2021/11/17 12:37:27;;;;;;;19.17;11.70;;;307.70;2304.00;;;;;;4938906;29;20046;-77
2021/11/17 12:39:56;;;;;;;18.98;11.45;;;307.70;2304.00;;;;;;4938750;29;20036;-84
2021/11/17 12:42:32;;;;;;;22.45;12.70;;;307.60;2304.00;;;;;;4938944;29;20038;-82
2021/11/17 12:44:59;;;;;;;17.45;11.07;;;307.50;2304.00;;;;;;4956045;29;20495;-76
2021/11/17 12:47:31;;;;;;;17.58;10.25;;;307.50;2304.00;;;;;;4955741;29;20035;-86
2021/11/17 12:50:05;;;;;;;22.70;12.75;;;307.60;2304.00;;;;;;4955721;29;20488;-82
2021/11/17 12:52:46;;;;;;;17.02;11.27;;;307.50;2304.00;;;;;;4938683;29;20031;-76
2021/11/17 12:55:52;;;;;;;17.30;11.77;;;307.40;2304.00;;;;;;4955843;29;20106;-76
2021/11/17 12:58:27;;;;;;;20.52;13.07;;;307.40;2304.00;;;;;;4955708;29;20036;-78
2021/11/17 13:00:57;;;;;;;20.38;13.07;;;307.40;2304.00;;;;;;4955490;29;20039;-79
2021/11/17 13:03:52;;;;;;;22.25;14.45;;;307.30;2304.00;;;;;;4955644;29;20031;-76
2021/11/17 13:06:18;;;;;;;18.65;12.35;;;307.30;2304.00;;;;;;4938463;29;20090;-77
2021/11/17 13:08:45;;;;;;;16.63;11.68;;;307.30;2304.00;;;;;;4938008;28;20392;-81
2021/11/17 13:11:18;;;;;;;18.42;10.85;;;307.40;2304.00;;;;;;4938521;29;20023;-78
2021/11/17 13:13:57;;;;;;;22.75;12.48;;;307.30;2304.00;;;;;;4955462;29;20027;-75
2021/11/17 13:16:35;;;;;;;32.55;15.05;;;307.30;2304.00;;;;;;4955506;29;20495;-79
2021/11/17 13:19:24;;;;;;;21.52;11.27;;;307.20;2304.00;;;;;;4955229;29;20066;-82
2021/11/17 13:21:55;;;;;;;19.60;12.40;;;307.20;2304.00;;;;;;4928108;29;20440;-75
2021/11/17 13:24:20;;;;;;;30.67;16.25;;;307.20;2304.00;;;;;;4952188;28;20023;-83
2021/11/17 13:27:11;;;;;;;18.52;11.63;;;307.20;2304.00;;;;;;4938590;29;20051;-85
2021/11/17 13:29:55;;;;;;;18.77;13.30;;;282.50;2278.40;;;;;;4900889;29;20402;-84
2021/11/17 13:32:39;;;;;;;14.80;10.10;;;282.50;2278.40;;;;;;4903373;29;20028;-85
2021/11/17 13:35:33;;;;;;;18.05;11.35;;;282.40;2278.40;;;;;;4918911;29;20032;-76
2021/11/17 13:38:09;;;;;;;17.80;11.35;;;282.30;2278.40;;;;;;4902906;29;20119;-76
2021/11/17 13:40:58;;;;;;;17.30;10.47;;;282.30;2278.40;;;;;;4919095;29;20139;-85
2021/11/17 13:43:31;;;;;;;21.38;13.18;;;282.20;2278.40;;;;;;4861462;29;20029;-85
2021/11/17 13:46:01;;;;;;;25.90;14.15;;;282.20;2278.40;;;;;;4847225;29;20049;-79
2021/11/17 13:48:32;;;;;;;20.45;13.00;;;282.20;2278.40;;;;;;4862114;29;20042;-76
2021/11/17 13:50:58;;;;;;;24.80;14.55;;;282.10;2278.40;;;;;;4862005;29;20025;-82
2021/11/17 13:53:26;;;;;;;30.00;17.25;;;282.00;2278.40;;;;;;4874340;29;20045;-77
2021/11/17 13:55:56;;;;;;;33.60;17.02;;;281.90;2278.40;;;;;;4880457;29;20117;-81
2021/11/17 13:58:23;;;;;;;26.85;17.20;;;281.90;2278.40;;;;;;4865462;29;20033;-79
2021/11/17 14:00:49;;;;;;;24.58;15.07;;;281.80;2278.40;;;;;;4865052;29;20041;-78
2021/11/17 14:03:15;;;;;;;23.45;15.20;;;281.80;2278.40;;;;;;4880596;29;20030;-77
2021/11/17 14:05:46;;;;;;;25.33;15.88;;;281.80;2278.40;;;;;;4881444;29;20097;-82
2021/11/17 14:08:12;;;;;;;28.35;16.73;;;281.80;2278.40;;;;;;4883831;29;20037;-79
2021/11/17 14:10:39;;;;;;;24.77;13.93;;;281.90;2278.40;;;;;;4899428;29;20041;-76
2021/11/17 14:13:06;;;;;;;21.52;14.00;;;281.90;2278.40;;;;;;4883369;29;20043;-82
2021/11/17 14:15:33;;;;;;;23.80;14.18;;;281.90;2278.40;;;;;;4884188;29;20036;-78
2021/11/17 14:17:59;;;;;;;26.00;14.40;;;281.80;2278.40;;;;;;4898992;29;20033;-76
2021/11/17 14:20:26;;;;;;;27.98;16.70;;;281.90;2278.40;;;;;;4919028;29;20043;-83
2021/11/17 14:22:52;;;;;;;25.13;14.63;;;281.80;2278.40;;;;;;4938987;29;20032;-76
2021/11/17 14:25:21;;;;;;;30.92;15.40;;;281.80;2278.40;;;;;;4921649;29;20040;-80
2021/11/17 14:27:51;;;;;;;30.60;16.00;;;281.80;2278.40;;;;;;4938670;29;20428;-83
2021/11/17 14:30:26;;;;;;;25.35;15.18;;;281.80;2278.40;;;;;;4921687;29;20028;-83
2021/11/17 14:32:53;;;;;;;39.05;18.42;;;281.80;2278.40;;;;;;4938460;29;20145;-84
2021/11/17 14:35:22;;;;;;;40.60;19.77;;;281.80;2278.40;;;;;;4921499;29;20032;-82
2021/11/17 14:37:48;;;;;;;37.80;20.35;;;281.70;2278.40;;;;;;4937575;29;20027;-83
2021/11/17 14:40:18;;;;;;;35.67;20.88;;;281.70;2278.40;;;;;;4921343;29;20043;-78
2021/11/17 14:42:44;;;;;;;38.00;19.98;;;281.70;2278.40;;;;;;4921773;29;20114;-79
2021/11/17 14:45:14;;;;;;;31.75;17.42;;;281.70;2278.40;;;;;;4938523;29;20020;-80
2021/11/17 14:47:41;;;;;;;28.35;14.68;;;281.70;2278.40;;;;;;4921093;29;20031;-80
2021/11/17 14:50:07;;;;;;;26.27;15.93;;;281.70;2278.40;;;;;;4921463;29;20028;-75
2021/11/17 14:52:33;;;;;;;23.30;13.25;;;281.70;2278.40;;;;;;4921643;29;20024;-80
2021/11/17 14:54:59;;;;;;;30.48;13.65;;;281.70;2278.40;;;;;;4920947;29;20131;-84
2021/11/17 14:57:25;;;;;;;25.90;13.70;;;281.70;2278.40;;;;;;4921194;29;20111;-77
2021/11/17 14:59:53;;;;;;;28.00;14.15;;;281.60;2278.40;;;;;;4938127;29;20055;-79
2021/11/17 15:02:19;;;;;;;24.13;14.10;;;281.60;2278.40;;;;;;4921033;29;20043;-76
2021/11/17 15:04:45;;;;;;;26.88;14.63;;;281.60;2278.40;;;;;;4937833;29;20020;-80
2021/11/17 15:07:12;;;;;;;21.83;13.77;;;256.90;2252.80;;;;;;4920598;29;20476;-76
2021/11/17 15:09:39;;;;;;;23.20;13.13;;;281.80;2278.40;;;;;;4920438;29;20130;-76
2021/11/17 15:12:15;;;;;;;21.98;12.93;;;256.90;2252.80;;;;;;4921010;29;20035;-84
2021/11/17 15:14:42;;;;;;;25.38;14.15;;;256.90;2252.80;;;;;;4934508;28;20098;-79
2021/11/17 15:17:08;;;;;;;25.50;14.00;;;256.90;2252.80;;;;;;4956492;29;20535;-76